Terminal Aerodrome Forecast
Issued by NWS Hastings, NE

Home | Current Version | Previous Version | Text Only | Print | Product List | Glossary On
Versions: 1 2 3 4 5 6 7 8 9 10 11 12 13 14 15 16 17 18 19 20
000
FTUS45 KGID 190425 AAA
TAFEAR
TAF AMD
KEAR 190425Z 1904/1924 VRB06KT P6SM SCT004 OVC010
     FM190600 20005KT 3SM BR SCT002 OVC004
     FM191600 18008KT P6SM SCT004 OVC008
     FM191900 18008KT P6SM SCT008 OVC012
      AMD LTD TO CLD VIS AND WIND=

USA.gov is the U.S. government's official web portal to all federal, state and local government web resources and services.